aviador You're here:

LQSA Decoded Metar

SARAJEVO in BOSNIA-HERCEGOVINA
Report Time2017-10-17 11:00:00
UTC Time2017-10-17 11:20:30
Flight Rules vfr VFR
WindVRB at 02 kt
Visibility9999 m
Phenomena:N/A
Clouds:N/A
Expected CloudBase > 4,000 ft AGL from Temp-Dew spread
CeilingNone
Temp18°C (ISA +6)
Dew Point08°C (52% RH)
AAT16.8°C
QNH1027 hPa
Density Alt2,100 ft
Elevation1,677 ft
Report Wrong Elevation
Raw Report
LQSA 171100Z VRB02KT CAVOK 18/08 Q1027 NOSIG=

Extra information for LQSA:More info

Metar Taf Metar & Taf Last 4 Metars F.Rules Stats Wind Profile Meteogram Temp Stats Airport Information Weather charts Add Link Nearby VenuesMetar ALERT Operation Metar Decoded Social comments